.
WxDataArchive / Data Records for 2007-04-07
2007-04-06 April 2007 2007-04-08

Data Records for Saturday, 07 April 2007

Time	Temp	Chill	HIndex	Humid	Dewpt	 Wind 	HiWind	WindDir	Rain 	Barom 
-----	----	-----	------	-----	-----	------	------	-------	-----	----- 
00:00	25.4	25.4	25.4	76	18.9	1	4	248	0.00	29.891 
00:05	25.4	25.4	25.4	77	19.2	1	4	270	0.00	29.889 
00:10	25.3	25.3	25.3	78	19.4	1	3	270	0.00	29.889 
00:15	25.3	25.3	25.3	78	19.4	1	3	270	0.00	29.888 
00:20	25.3	25.3	25.3	78	19.4	1	3	338	0.00	29.885 
00:25	25.1	25.1	25.1	78	19.2	1	3	270	0.00	29.883 
00:30	25.1	25.1	25.1	78	19.2	1	3	248	0.00	29.880 
00:35	25.0	25.0	25.0	77	18.8	1	4	248	0.00	29.880 
00:40	25.0	25.0	25.0	77	18.8	2	4	270	0.00	29.879 
00:45	25.0	25.0	25.0	77	18.8	2	4	270	0.00	29.879 
00:50	24.8	24.8	24.8	78	18.9	1	4	270	0.00	29.879 
00:55	24.8	24.8	24.8	79	19.2	1	3	270	0.00	29.878 
01:00	24.7	24.7	24.7	80	19.4	0	2	270	0.00	29.876 
01:05	24.7	24.7	24.7	81	19.7	1	2	248	0.00	29.873 
01:10	24.5	24.5	24.5	81	19.5	1	5	248	0.00	29.872 
01:15	24.5	24.5	24.5	80	19.2	1	2	248	0.00	29.869 
01:20	24.5	24.5	24.5	80	19.2	1	2	248	0.00	29.868 
01:25	24.5	24.5	24.5	80	19.2	1	4	248	0.00	29.867 
01:30	24.4	24.4	24.4	81	19.4	1	3	248	0.00	29.867 
01:35	24.4	24.4	24.4	81	19.4	1	4	248	0.00	29.866 
01:40	24.4	24.4	24.4	81	19.4	1	3	248	0.00	29.865 
01:45	24.2	24.2	24.2	81	19.2	0	2	248	0.00	29.865 
01:50	24.4	24.4	24.4	81	19.4	1	3	248	0.00	29.865 
01:55	24.4	24.4	24.4	81	19.4	1	3	270	0.00	29.863 
02:00	24.4	24.4	24.4	79	18.8	1	3	248	0.00	29.862 
02:05	24.4	24.4	24.4	78	18.5	1	4	225	0.00	29.857 
02:10	24.4	24.4	24.4	77	18.2	1	4	270	0.00	29.859 
02:15	24.5	24.5	24.5	77	18.3	1	4	248	0.00	29.857 
02:20	24.5	24.5	24.5	76	18.0	1	3	315	0.00	29.857 
02:25	24.7	24.7	24.7	76	18.2	1	3	270	0.00	29.857 
02:30	24.7	24.7	24.7	75	17.9	1	4	248	0.00	29.857 
02:35	24.8	24.8	24.8	75	18.0	1	4	315	0.00	29.854 
02:40	24.8	24.8	24.8	75	18.0	1	3	315	0.00	29.854 
02:45	24.8	24.8	24.8	75	18.0	2	5	270	0.00	29.853 
02:50	24.7	24.7	24.7	75	17.9	1	5	248	0.00	29.851 
02:55	24.7	24.7	24.7	76	18.2	1	5	248	0.00	29.850 
03:00	24.5	24.5	24.5	76	18.0	1	3	248	0.00	29.851 
03:05	24.5	24.5	24.5	76	18.0	2	5	248	0.00	29.854 
03:10	24.5	24.5	24.5	76	18.0	2	5	270	0.00	29.855 
03:15	24.5	24.5	24.5	75	17.7	2	5	315	0.00	29.853 
03:20	24.4	24.4	24.4	75	17.6	2	7	292	0.00	29.855 
03:25	24.4	24.4	24.4	75	17.6	1	4	248	0.00	29.855 
03:30	24.4	24.4	24.4	77	18.2	1	3	315	0.00	29.856 
03:35	24.2	24.2	24.2	78	18.3	1	4	315	0.00	29.860 
03:40	23.6	23.6	23.6	79	18.1	1	4	292	0.00	29.863 
03:45	23.0	23.0	23.0	80	17.8	0	2	315	0.00	29.862 
03:50	22.7	22.7	22.7	81	17.8	1	5	270	0.00	29.863 
03:55	22.5	22.5	22.5	82	17.9	1	3	292	0.00	29.863 
04:00	22.2	22.2	22.2	83	17.8	1	4	292	0.00	29.866 
04:05	22.2	22.2	22.2	83	17.8	1	3	270	0.00	29.867 
04:10	22.1	22.1	22.1	82	17.5	0	2	270	0.00	29.867 
04:15	22.1	22.1	22.1	81	17.2	1	5	315	0.00	29.868 
04:20	22.1	22.1	22.1	80	16.9	1	3	270	0.00	29.869 
04:25	22.1	22.1	22.1	79	16.6	1	3	292	0.00	29.867 
04:30	22.1	22.1	22.1	78	16.3	1	3	270	0.00	29.865 
04:35	21.9	21.9	21.9	77	15.8	0	2	315	0.00	29.866 
04:40	21.9	21.9	21.9	78	16.1	0	3	292	0.00	29.867 
04:45	21.8	21.8	21.8	78	16.0	0	4	292	0.00	29.866 
04:50	21.8	21.8	21.8	78	16.0	0	1	292	0.00	29.865 
04:55	21.6	21.6	21.6	79	16.1	0	1	292	0.00	29.864 
05:00	21.8	21.8	21.8	79	16.3	0	1	292	0.00	29.865 
05:05	21.8	21.8	21.8	79	16.3	0	1	292	0.00	29.864 
05:10	21.9	21.9	21.9	80	16.7	0	2	292	0.00	29.863 
05:15	21.9	21.9	21.9	80	16.7	0	1	292	0.00	29.863 
05:20	22.1	22.1	22.1	80	16.9	0	1	292	0.00	29.864 
05:25	22.1	22.1	22.1	80	16.9	0	1	270	0.00	29.866 
05:30	21.9	21.9	21.9	80	16.7	0	1	270	0.00	29.865 
05:35	21.9	21.9	21.9	81	17.0	0	1	270	0.00	29.867 
05:40	21.8	21.8	21.8	81	16.9	0	1	270	0.00	29.868 
05:45	21.9	21.9	21.9	82	17.3	0	0	---	0.00	29.869 
05:50	21.9	21.9	21.9	82	17.3	0	2	270	0.00	29.868 
05:55	21.8	21.8	21.8	81	16.9	0	2	270	0.00	29.868 
06:00	21.8	21.8	21.8	81	16.9	1	2	248	0.00	29.868 
06:05	21.6	21.6	21.6	80	16.4	1	2	248	0.00	29.868 
06:10	21.6	21.6	21.6	79	16.1	1	2	248	0.00	29.869 
06:15	21.6	21.6	21.6	79	16.1	1	3	248	0.00	29.870 
06:20	21.4	21.4	21.4	79	15.9	1	3	248	0.00	29.870 
06:25	21.4	21.4	21.4	79	15.9	1	2	248	0.00	29.872 
06:30	21.3	21.3	21.3	79	15.8	0	1	248	0.00	29.874 
06:35	21.3	21.3	21.3	79	15.8	1	2	248	0.00	29.874 
06:40	21.4	21.4	21.4	80	16.2	1	2	248	0.00	29.877 
06:45	21.6	21.6	21.6	80	16.4	1	5	248	0.00	29.875 
06:50	21.9	21.9	21.9	79	16.4	1	5	270	0.00	29.875 
06:55	22.1	22.1	22.1	79	16.6	1	5	248	0.00	29.876 
07:00	22.2	22.2	22.2	79	16.7	1	4	270	0.00	29.877 
07:05	22.4	22.4	22.4	79	16.9	1	3	248	0.00	29.879 
07:10	22.7	22.7	22.7	78	16.9	1	3	248	0.00	29.878 
07:15	22.9	22.9	22.9	77	16.8	1	3	248	0.00	29.878 
07:20	22.9	22.9	22.9	76	16.5	2	6	270	0.00	29.879 
07:25	23.0	23.0	23.0	75	16.3	2	4	270	0.00	29.880 
07:30	23.2	23.2	23.2	74	16.2	2	5	248	0.00	29.879 
07:35	23.5	23.5	23.5	75	16.8	2	6	248	0.00	29.880 
07:40	23.6	23.6	23.6	76	17.2	2	4	270	0.00	29.880 
07:45	23.8	23.8	23.8	77	17.7	2	4	270	0.00	29.879 
07:50	23.8	23.8	23.8	78	18.0	3	10	270	0.00	29.877 
07:55	23.2	23.2	23.2	79	17.7	3	9	270	0.00	29.879 
08:00	23.0	23.0	23.0	81	18.1	3	5	270	0.00	29.879 
08:05	22.9	22.9	22.9	81	18.0	3	6	270	0.00	29.883 
08:10	22.9	22.9	22.9	81	18.0	3	7	270	0.00	29.885 
08:15	23.2	23.2	23.2	81	18.3	3	7	270	0.00	29.886 
08:20	23.3	23.3	23.3	79	17.8	3	7	270	0.00	29.887 
08:25	23.3	23.3	23.3	78	17.5	3	7	270	0.00	29.888 
08:30	23.6	23.6	23.6	78	17.8	3	5	270	0.00	29.887 
08:35	23.9	23.9	23.9	78	18.1	2	5	248	0.00	29.887 
08:40	24.4	24.4	24.4	76	17.9	3	7	248	0.00	29.886 
08:45	24.2	19.1	24.2	73	16.8	4	6	270	0.00	29.885 
08:50	24.4	24.4	24.4	74	17.3	3	7	270	0.00	29.886 
08:55	24.5	24.5	24.5	73	17.1	3	6	270	0.00	29.885 
09:00	24.7	24.7	24.7	72	17.0	3	6	270	0.00	29.885 
09:05	24.8	24.8	24.8	73	17.4	3	6	270	0.00	29.887 
09:10	25.0	20.0	25.0	73	17.6	4	10	270	0.00	29.887 
09:15	24.8	19.8	24.8	73	17.4	4	9	270	0.00	29.889 
09:20	24.8	24.8	24.8	73	17.4	3	6	270	0.00	29.889 
09:25	25.0	25.0	25.0	73	17.6	2	7	248	0.00	29.888 
09:30	25.3	25.3	25.3	70	16.9	2	5	270	0.00	29.889 
09:35	25.3	25.3	25.3	69	16.6	3	6	270	0.00	29.890 
09:40	25.7	25.7	25.7	69	17.0	3	6	270	0.00	29.892 
09:45	26.0	26.0	26.0	67	16.6	3	7	270	0.00	29.893 
09:50	26.3	26.3	26.3	65	16.2	3	7	270	0.00	29.891 
09:55	26.1	26.1	26.1	66	16.3	3	7	270	0.00	29.893 
10:00	26.0	21.1	26.0	65	15.9	4	11	270	0.00	29.897 
10:05	25.8	25.8	25.8	67	16.4	3	6	270	0.00	29.893 
10:10	26.4	26.4	26.4	68	17.3	3	5	270	0.00	29.892 
10:15	27.0	27.0	27.0	67	17.5	2	6	338	0.00	29.894 
10:20	26.7	26.7	26.7	64	16.2	3	13	270	0.00	29.895 
10:25	27.0	27.0	27.0	64	16.5	3	7	270	0.00	29.893 
10:30	27.2	22.5	27.2	63	16.3	4	9	270	0.00	29.896 
10:35	26.7	20.9	26.7	62	15.5	5	11	270	0.00	29.895 
10:40	27.2	22.5	27.2	64	16.7	4	8	270	0.00	29.895 
10:45	27.6	23.0	27.6	63	16.7	4	14	292	0.01	29.894 
10:50	27.9	22.3	27.9	63	17.0	5	10	270	0.00	29.894 
10:55	28.5	28.5	28.5	62	17.2	3	7	270	0.00	29.891 
11:00	29.4	25.1	29.4	59	16.9	4	10	270	0.00	29.891 
11:05	29.3	23.9	29.3	59	16.8	5	11	270	0.00	29.894 
11:10	28.7	23.2	28.7	60	16.6	5	16	270	0.00	29.895 
11:15	28.1	21.6	28.1	59	15.6	6	13	270	0.00	29.895 
11:20	28.1	22.5	28.1	58	15.3	5	12	270	0.00	29.896 
11:25	28.2	23.7	28.2	61	16.5	4	9	270	0.00	29.898 
11:30	28.1	22.5	28.1	61	16.4	5	12	270	0.00	29.898 
11:35	28.2	23.7	28.2	62	16.9	4	12	270	0.00	29.899 
11:40	28.7	24.3	28.7	60	16.6	4	15	270	0.00	29.896 
11:45	28.7	24.3	28.7	60	16.6	4	8	270	0.00	29.897 
11:50	28.1	23.6	28.1	62	16.8	4	7	270	0.00	29.899 
11:55	27.8	23.2	27.8	64	17.2	4	12	270	0.00	29.899 
12:00	28.2	23.7	28.2	62	16.9	4	11	270	0.00	29.898 
12:05	28.5	24.0	28.5	60	16.4	4	7	270	0.00	29.895 
12:10	27.8	23.2	27.8	67	18.3	4	11	270	0.00	29.899 
12:15	27.6	23.0	27.6	65	17.4	4	11	270	0.00	29.898 
12:20	29.0	24.6	29.0	64	18.4	4	7	270	0.00	29.896 
12:25	29.7	24.4	29.7	61	17.9	5	12	270	0.00	29.895 
12:30	28.7	24.3	28.7	62	17.4	4	11	270	0.00	29.896 
12:35	29.0	29.0	29.0	64	18.4	3	11	270	0.00	29.895 
12:40	29.1	23.7	29.1	62	17.7	5	11	270	0.00	29.894 
12:45	28.8	23.3	28.8	61	17.1	5	10	270	0.00	29.896 
12:50	28.2	23.7	28.2	61	16.5	4	9	270	0.00	29.897 
12:55	28.5	24.0	28.5	61	16.8	4	12	270	0.00	29.895 
13:00	29.1	23.7	29.1	62	17.7	5	15	270	0.00	29.894 
13:05	29.3	23.9	29.3	67	19.7	5	12	270	0.00	29.897 
13:10	29.3	29.3	29.3	62	17.9	3	7	270	0.00	29.895 
13:15	28.7	24.3	28.7	64	18.1	4	11	270	0.00	29.895 
13:20	28.4	28.4	28.4	68	19.2	3	10	270	0.00	29.898 
13:25	27.9	22.3	27.9	73	20.4	5	11	270	0.00	29.899 
13:30	28.1	23.6	28.1	75	21.2	4	14	270	0.00	29.898 
13:35	28.4	21.9	28.4	67	18.9	6	13	270	0.00	29.898 
13:40	28.8	24.4	28.8	65	18.5	4	7	270	0.00	29.898 
13:45	30.0	25.8	30.0	65	19.7	4	9	270	0.00	29.897 
13:50	29.4	23.1	29.4	59	16.9	6	16	270	0.00	29.897 
13:55	28.7	24.3	28.7	65	18.4	4	11	270	0.00	29.903 
14:00	27.8	23.2	27.8	71	19.6	4	9	270	0.00	29.907 
14:05	27.8	27.8	27.8	71	19.6	3	6	270	0.00	29.909 
14:10	28.5	24.0	28.5	66	18.6	4	9	270	0.00	29.909 
14:15	29.4	25.1	29.4	61	17.6	4	12	270	0.00	29.902 
14:20	29.4	25.1	29.4	62	18.0	4	16	270	0.00	29.904 
14:25	28.5	24.0	28.5	66	18.6	4	9	270	0.00	29.910 
14:30	28.5	28.5	28.5	61	16.8	3	8	270	0.00	29.908 
14:35	28.8	23.3	28.8	59	16.3	5	11	270	0.00	29.909 
14:40	28.5	23.0	28.5	67	19.0	5	11	270	0.00	29.912 
14:45	27.6	23.0	27.6	71	19.4	4	10	270	0.00	29.914 
14:50	27.9	23.3	27.9	67	18.4	4	8	270	0.00	29.914 
14:55	28.4	23.9	28.4	61	16.7	4	10	270	0.00	29.914 
15:00	28.7	28.7	28.7	60	16.6	3	7	270	0.00	29.912 
15:05	29.0	29.0	29.0	59	16.5	2	5	270	0.00	29.917 
15:10	28.8	24.4	28.8	58	15.9	4	10	270	0.00	29.918 
15:15	28.4	22.8	28.4	59	15.9	5	11	270	0.00	29.920 
15:20	28.1	28.1	28.1	61	16.4	3	7	270	0.00	29.922 
15:25	28.2	28.2	28.2	58	15.3	3	10	270	0.00	29.921 
15:30	28.7	28.7	28.7	56	15.0	3	8	315	0.00	29.922 
15:35	29.0	29.0	29.0	55	14.9	3	7	270	0.00	29.925 
15:40	29.0	29.0	29.0	55	14.9	3	6	270	0.00	29.924 
15:45	28.8	28.8	28.8	52	13.4	3	6	292	0.00	29.928 
15:50	29.4	29.4	29.4	52	14.0	2	5	338	0.00	29.926 
15:55	30.0	30.0	30.0	51	14.1	3	6	270	0.00	29.921 
16:00	30.0	25.8	30.0	49	13.2	4	13	292	0.00	29.923 
16:05	29.7	25.4	29.7	54	15.1	4	14	270	0.00	29.928 
16:10	29.4	25.1	29.4	51	13.5	4	11	270	0.00	29.931 
16:15	29.5	25.2	29.5	51	13.6	4	14	292	0.00	29.929 
16:20	29.8	25.5	29.8	52	14.3	4	8	270	0.00	29.929 
16:25	30.4	30.4	30.4	52	14.9	3	11	270	0.00	29.930 
16:30	29.8	25.5	29.8	52	14.3	4	10	270	0.00	29.930 
16:35	29.5	25.2	29.5	54	14.9	4	11	270	0.00	29.931 
16:40	29.7	29.7	29.7	56	15.9	2	6	315	0.00	29.933 
16:45	29.3	29.3	29.3	56	15.6	3	13	338	0.00	29.939 
16:50	28.4	28.4	28.4	60	16.3	3	6	338	0.00	29.943 
16:55	28.4	28.4	28.4	63	17.4	3	11	270	0.00	29.946 
17:00	28.4	28.4	28.4	65	18.2	3	5	270	0.00	29.947 
17:05	28.4	28.4	28.4	65	18.2	3	10	270	0.00	29.947 
17:10	28.5	28.5	28.5	62	17.2	3	12	292	0.00	29.948 
17:15	28.5	28.5	28.5	62	17.2	3	6	315	0.00	29.949 
17:20	28.7	28.7	28.7	63	17.7	2	7	270	0.00	29.948 
17:25	28.7	28.7	28.7	62	17.4	3	6	292	0.00	29.949 
17:30	28.4	28.4	28.4	60	16.3	3	12	270	0.00	29.948 
17:35	28.2	28.2	28.2	59	15.7	3	7	270	0.00	29.949 
17:40	28.4	28.4	28.4	60	16.3	3	10	270	0.00	29.951 
17:45	28.4	28.4	28.4	61	16.7	3	10	270	0.00	29.953 
17:50	28.2	28.2	28.2	60	16.1	3	7	270	0.00	29.955 
17:55	28.1	28.1	28.1	60	16.0	2	7	270	0.00	29.955 
18:00	28.2	28.2	28.2	61	16.5	2	7	270	0.00	29.955 
18:05	28.4	28.4	28.4	60	16.3	1	6	270	0.00	29.956 
18:10	28.4	28.4	28.4	60	16.3	2	8	315	0.00	29.960 
18:15	27.9	27.9	27.9	62	16.6	3	9	315	0.00	29.963 
18:20	27.5	27.5	27.5	67	18.0	2	6	315	0.00	29.964 
18:25	26.9	26.9	26.9	69	18.1	3	6	270	0.00	29.966 
18:30	26.7	26.7	26.7	70	18.3	2	4	270	0.00	29.966 
18:35	26.7	26.7	26.7	70	18.3	2	5	270	0.00	29.966 
18:40	26.7	26.7	26.7	70	18.3	2	4	270	0.00	29.967 
18:45	26.9	26.9	26.9	69	18.1	1	4	248	0.00	29.967 
18:50	27.0	27.0	27.0	68	17.9	1	4	270	0.00	29.966 
18:55	27.2	27.2	27.2	66	17.4	2	6	270	0.00	29.967 
19:00	27.2	27.2	27.2	65	17.0	1	3	292	0.00	29.967 
19:05	27.2	27.2	27.2	64	16.7	1	4	270	0.00	29.968 
19:10	27.2	27.2	27.2	64	16.7	2	4	338	0.00	29.968 
19:15	27.2	27.2	27.2	65	17.0	1	4	0	0.00	29.970 
19:20	27.2	27.2	27.2	65	17.0	1	5	248	0.00	29.972 
19:25	27.2	27.2	27.2	65	17.0	2	4	270	0.00	29.974 
19:30	27.2	27.2	27.2	65	17.0	2	6	270	0.00	29.975 
19:35	27.0	27.0	27.0	65	16.8	1	4	270	0.00	29.976 
19:40	27.0	27.0	27.0	65	16.8	2	4	270	0.00	29.977 
19:45	27.0	27.0	27.0	65	16.8	1	4	292	0.00	29.978 
19:50	27.0	27.0	27.0	65	16.8	1	5	248	0.00	29.979 
19:55	27.0	27.0	27.0	65	16.8	1	4	248	0.00	29.980 
20:00	27.0	27.0	27.0	65	16.8	2	5	270	0.00	29.980 
20:05	27.0	27.0	27.0	66	17.2	1	5	270	0.00	29.980 
20:10	27.0	27.0	27.0	67	17.5	1	3	270	0.00	29.980 
20:15	26.9	26.9	26.9	67	17.4	1	4	270	0.00	29.983 
20:20	26.9	26.9	26.9	67	17.4	2	4	270	0.00	29.987 
20:25	26.9	26.9	26.9	67	17.4	1	4	248	0.00	29.991 
20:30	26.7	26.7	26.7	67	17.2	2	4	292	0.00	29.992 
20:35	26.9	26.9	26.9	67	17.4	1	3	248	0.00	29.993 
20:40	26.9	26.9	26.9	68	17.8	1	3	270	0.00	29.995 
20:45	26.9	26.9	26.9	68	17.8	2	4	315	0.00	29.997 
20:50	26.7	26.7	26.7	70	18.3	1	3	338	0.00	29.998 
20:55	26.6	26.6	26.6	71	18.5	1	4	270	0.00	29.999 
21:00	26.3	26.3	26.3	72	18.5	1	3	248	0.00	30.004 
21:05	26.1	26.1	26.1	73	18.7	1	3	248	0.00	30.002 
21:10	26.1	26.1	26.1	74	19.0	1	3	248	0.00	30.003 
21:15	26.0	26.0	26.0	74	18.9	1	3	248	0.00	30.003 
21:20	26.0	26.0	26.0	74	18.9	1	2	248	0.00	30.002 
21:25	26.1	26.1	26.1	73	18.7	1	4	270	0.00	30.004 
21:30	26.3	26.3	26.3	73	18.8	1	2	292	0.00	30.006 
21:35	26.3	26.3	26.3	73	18.8	1	2	248	0.00	30.004 
21:40	26.3	26.3	26.3	73	18.8	0	2	248	0.00	30.005 
21:45	26.3	26.3	26.3	73	18.8	1	3	248	0.00	30.007 
21:50	26.3	26.3	26.3	74	19.2	1	2	248	0.00	30.007 
21:55	26.3	26.3	26.3	74	19.2	1	3	248	0.00	30.006 
22:00	26.3	26.3	26.3	76	19.8	1	4	248	0.00	30.006 
22:05	26.1	26.1	26.1	78	20.2	1	4	248	0.00	30.002 
22:10	26.0	26.0	26.0	80	20.7	1	6	248	0.00	29.999 
22:15	25.7	25.7	25.7	81	20.7	2	7	248	0.00	29.997 
22:20	25.7	25.7	25.7	82	21.0	1	3	248	0.00	29.997 
22:25	25.6	25.6	25.6	82	20.9	1	3	225	0.00	29.997 
22:30	25.6	25.6	25.6	83	21.2	1	3	225	0.00	29.994 
22:35	25.6	25.6	25.6	83	21.2	1	5	248	0.00	29.994 
22:40	25.4	25.4	25.4	83	21.0	1	4	248	0.00	29.995 
22:45	25.4	25.4	25.4	83	21.0	1	3	248	0.00	29.995 
22:50	25.4	25.4	25.4	84	21.3	1	4	248	0.00	29.997 
22:55	25.4	25.4	25.4	83	21.0	0	2	248	0.00	29.997 
23:00	25.4	25.4	25.4	83	21.0	1	3	248	0.00	29.998 
23:05	25.6	25.6	25.6	83	21.2	1	4	248	0.00	29.998 
23:10	25.6	25.6	25.6	83	21.2	1	3	292	0.00	30.000 
23:15	25.6	25.6	25.6	84	21.5	1	5	248	0.00	29.999 
23:20	25.6	25.6	25.6	84	21.5	1	4	248	0.00	29.998 
23:25	25.6	25.6	25.6	84	21.5	1	4	248	0.00	29.997 
23:30	25.6	25.6	25.6	84	21.5	1	3	248	0.00	29.995 
23:35	25.6	25.6	25.6	84	21.5	1	4	248	0.00	29.993 
23:40	25.6	25.6	25.6	83	21.2	1	5	248	0.00	29.993 
23:45	25.6	25.6	25.6	83	21.2	1	6	248	0.00	29.992 
23:50	25.6	25.6	25.6	83	21.2	2	5	248	0.00	29.993 
23:55	25.6	25.6	25.6	84	21.5	1	4	248	0.00	29.992 

CoCoRaHS
IN-AL-39
A2 Web Hosting
Creative Commons License
GoDaddy
Look for:

loaded 2017-10-20 19:50:17 • last modified 2010-11-18 10:43:29
Privacy PolicyDisclaimer
• wx.awcolley.com is powered by PmWiki v.2002016 •
• all content (unless otherwise noted) © 2017 A W Colley